sensor_id;sensor_type;location;lat;lon;timestamp;pressure;altitude;pressure_sealevel;temperature;humidity
10658;BME280;5377;43.276;26.930;2022-09-23T00:03:33;99221.59;;;11.56;100.00
10658;BME280;5377;43.276;26.930;2022-09-23T00:09:35;99224.06;;;11.51;100.00
10658;BME280;5377;43.276;26.930;2022-09-23T00:22:31;99222.22;;;11.51;100.00
10658;BME280;5377;43.276;26.930;2022-09-23T00:39:04;99239.72;;;11.14;100.00
10658;BME280;5377;43.276;26.930;2022-09-23T01:18:47;99236.16;;;11.07;100.00
10658;BME280;5377;43.276;26.930;2022-09-23T01:49:16;99223.78;;;10.93;100.00
10658;BME280;5377;43.276;26.930;2022-09-23T01:58:57;99235.31;;;10.87;100.00
10658;BME280;5377;43.276;26.930;2022-09-23T02:11:46;99249.63;;;10.59;100.00
10658;BME280;5377;43.276;26.930;2022-09-23T02:18:00;99225.69;;;10.51;100.00
10658;BME280;5377;43.276;26.930;2022-09-23T02:20:32;99236.84;;;10.55;100.00
10658;BME280;5377;43.276;26.930;2022-09-23T02:23:02;99222.19;;;10.44;100.00
10658;BME280;5377;43.276;26.930;2022-09-23T02:54:37;99245.75;;;9.99;100.00
10658;BME280;5377;43.276;26.930;2022-09-23T02:57:05;99244.41;;;10.10;100.00
10658;BME280;5377;43.276;26.930;2022-09-23T02:59:39;99240.19;;;9.94;100.00
10658;BME280;5377;43.276;26.930;2022-09-23T07:14:46;99302.53;;;16.33;72.50
10658;BME280;5377;43.276;26.930;2022-09-23T07:17:12;99310.84;;;16.43;67.59
10658;BME280;5377;43.276;26.930;2022-09-23T07:19:52;99308.59;;;16.28;69.65
10658;BME280;5377;43.276;26.930;2022-09-23T07:32:14;99317.56;;;16.40;69.59
10658;BME280;5377;43.276;26.930;2022-09-23T07:34:41;99312.50;;;16.44;68.74
10658;BME280;5377;43.276;26.930;2022-09-23T07:37:08;99288.31;;;16.02;69.25
10658;BME280;5377;43.276;26.930;2022-09-23T07:39:35;99310.59;;;16.56;70.91
10658;BME280;5377;43.276;26.930;2022-09-23T07:42:34;99308.34;;;16.65;67.77
10658;BME280;5377;43.276;26.930;2022-09-23T07:48:39;99293.88;;;17.23;65.88
10658;BME280;5377;43.276;26.930;2022-09-23T07:51:07;99272.63;;;17.14;64.12
10658;BME280;5377;43.276;26.930;2022-09-23T07:53:35;99286.00;;;17.66;62.09
10658;BME280;5377;43.276;26.930;2022-09-23T07:56:02;99293.03;;;17.96;60.75
10658;BME280;5377;43.276;26.930;2022-09-23T07:58:32;99305.91;;;17.43;60.90
10658;BME280;5377;43.276;26.930;2022-09-23T08:01:04;99303.00;;;17.05;60.62
10658;BME280;5377;43.276;26.930;2022-09-23T08:03:31;99285.31;;;17.14;60.54
10658;BME280;5377;43.276;26.930;2022-09-23T08:06:07;99284.91;;;17.51;60.40
10658;BME280;5377;43.276;26.930;2022-09-23T08:08:34;99299.19;;;17.91;58.96
10658;BME280;5377;43.276;26.930;2022-09-23T08:11:09;99292.34;;;18.39;58.96
10658;BME280;5377;43.276;26.930;2022-09-23T08:20:27;99280.25;;;20.77;51.58
10658;BME280;5377;43.276;26.930;2022-09-23T08:23:14;99286.69;;;20.56;50.01
10658;BME280;5377;43.276;26.930;2022-09-23T08:25:42;99286.22;;;20.27;49.04
10658;BME280;5377;43.276;26.930;2022-09-23T08:28:12;99203.13;;;19.08;51.87
10658;BME280;5377;43.276;26.930;2022-09-23T08:30:41;99284.34;;;19.63;51.37
10658;BME280;5377;43.276;26.930;2022-09-23T08:33:08;99262.84;;;19.57;52.22
10658;BME280;5377;43.276;26.930;2022-09-23T08:35:35;99275.47;;;19.46;52.02
10658;BME280;5377;43.276;26.930;2022-09-23T08:38:02;99272.75;;;19.73;51.41
10658;BME280;5377;43.276;26.930;2022-09-23T08:40:32;99274.38;;;19.74;51.78
10658;BME280;5377;43.276;26.930;2022-09-23T08:42:59;99274.78;;;19.56;52.15
10658;BME280;5377;43.276;26.930;2022-09-23T08:45:26;99277.03;;;19.64;52.03
10658;BME280;5377;43.276;26.930;2022-09-23T08:47:56;99282.81;;;18.97;53.04
10658;BME280;5377;43.276;26.930;2022-09-23T08:50:29;99284.69;;;18.96;53.96
10658;BME280;5377;43.276;26.930;2022-09-23T08:53:00;99282.19;;;19.12;54.05
10658;BME280;5377;43.276;26.930;2022-09-23T08:55:33;99275.41;;;19.14;54.60
10658;BME280;5377;43.276;26.930;2022-09-23T08:58:27;99273.31;;;19.21;53.64
10658;BME280;5377;43.276;26.930;2022-09-23T09:01:05;99261.53;;;19.65;53.35
10658;BME280;5377;43.276;26.930;2022-09-23T09:03:35;99268.75;;;20.18;53.32
10658;BME280;5377;43.276;26.930;2022-09-23T09:06:04;99259.78;;;20.65;51.29
10658;BME280;5377;43.276;26.930;2022-09-23T09:08:34;99270.66;;;20.60;49.66
10658;BME280;5377;43.276;26.930;2022-09-23T09:11:04;99268.44;;;20.51;49.33
10658;BME280;5377;43.276;26.930;2022-09-23T09:13:34;99270.28;;;20.04;50.41
10658;BME280;5377;43.276;26.930;2022-09-23T09:16:22;99263.03;;;20.14;49.45
10658;BME280;5377;43.276;26.930;2022-09-23T09:18:54;99273.97;;;19.87;51.46
10658;BME280;5377;43.276;26.930;2022-09-23T09:21:31;99267.25;;;19.68;50.97
10658;BME280;5377;43.276;26.930;2022-09-23T09:24:11;99272.94;;;19.40;51.67
10658;BME280;5377;43.276;26.930;2022-09-23T09:26:43;99273.56;;;19.47;50.80
10658;BME280;5377;43.276;26.930;2022-09-23T09:29:14;99268.66;;;19.17;50.44
10658;BME280;5377;43.276;26.930;2022-09-23T09:31:44;99270.50;;;18.67;51.98
10658;BME280;5377;43.276;26.930;2022-09-23T09:34:23;99265.38;;;18.71;51.90
10658;BME280;5377;43.276;26.930;2022-09-23T09:37:00;99276.50;;;19.13;51.74
10658;BME280;5377;43.276;26.930;2022-09-23T09:39:41;99265.19;;;20.12;49.12
10658;BME280;5377;43.276;26.930;2022-09-23T09:42:14;99260.09;;;20.26;47.30
10658;BME280;5377;43.276;26.930;2022-09-23T09:44:48;99259.31;;;20.31;46.57
10658;BME280;5377;43.276;26.930;2022-09-23T09:47:26;99255.53;;;19.94;47.96
10658;BME280;5377;43.276;26.930;2022-09-23T09:50:04;99248.75;;;19.65;48.68
10658;BME280;5377;43.276;26.930;2022-09-23T09:52:31;99251.06;;;19.51;49.03
10658;BME280;5377;43.276;26.930;2022-09-23T09:55:21;99254.50;;;19.42;49.01
10658;BME280;5377;43.276;26.930;2022-09-23T09:57:53;99245.34;;;19.48;50.13
10658;BME280;5377;43.276;26.930;2022-09-23T10:00:35;99255.25;;;19.37;50.34
10658;BME280;5377;43.276;26.930;2022-09-23T10:03:14;99248.31;;;19.46;49.96
10658;BME280;5377;43.276;26.930;2022-09-23T10:05:47;99228.94;;;20.02;50.31
10658;BME280;5377;43.276;26.930;2022-09-23T10:08:22;99234.91;;;21.13;48.20
10658;BME280;5377;43.276;26.930;2022-09-23T10:10:51;99234.88;;;21.03;45.28
10658;BME280;5377;43.276;26.930;2022-09-23T10:13:21;99228.88;;;20.96;45.23
10658;BME280;5377;43.276;26.930;2022-09-23T10:15:52;99215.09;;;22.09;45.72
10658;BME280;5377;43.276;26.930;2022-09-23T10:18:24;99216.19;;;22.93;41.83
10658;BME280;5377;43.276;26.930;2022-09-23T10:20:59;99196.19;;;23.03;37.23
10658;BME280;5377;43.276;26.930;2022-09-23T10:23:27;99209.41;;;22.81;38.19
10658;BME280;5377;43.276;26.930;2022-09-23T10:25:59;99205.91;;;22.70;39.50
10658;BME280;5377;43.276;26.930;2022-09-23T10:28:47;99208.66;;;23.53;37.77
10658;BME280;5377;43.276;26.930;2022-09-23T10:31:21;99200.63;;;24.01;37.72
10658;BME280;5377;43.276;26.930;2022-09-23T10:33:52;99196.69;;;24.60;33.30
10658;BME280;5377;43.276;26.930;2022-09-23T10:36:21;99197.34;;;24.95;34.01
10658;BME280;5377;43.276;26.930;2022-09-23T10:38:52;99192.56;;;24.63;33.81
10658;BME280;5377;43.276;26.930;2022-09-23T10:41:48;99189.25;;;25.08;34.15
10658;BME280;5377;43.276;26.930;2022-09-23T10:44:50;99185.31;;;24.29;33.30
10658;BME280;5377;43.276;26.930;2022-09-23T10:47:40;99186.72;;;23.29;34.74
10658;BME280;5377;43.276;26.930;2022-09-23T10:50:16;99189.47;;;22.75;35.84
10658;BME280;5377;43.276;26.930;2022-09-23T10:53:02;99187.66;;;23.10;36.69
10658;BME280;5377;43.276;26.930;2022-09-23T10:55:38;99197.19;;;23.51;37.74
10658;BME280;5377;43.276;26.930;2022-09-23T10:58:40;99197.66;;;22.90;41.21
10658;BME280;5377;43.276;26.930;2022-09-23T11:01:23;99188.50;;;22.51;42.77
10658;BME280;5377;43.276;26.930;2022-09-23T11:04:05;99198.53;;;22.70;41.15
10658;BME280;5377;43.276;26.930;2022-09-23T11:06:46;99169.91;;;22.53;43.13
10658;BME280;5377;43.276;26.930;2022-09-23T11:09:26;99189.00;;;23.56;42.03
10658;BME280;5377;43.276;26.930;2022-09-23T11:12:05;99163.03;;;24.12;41.55
10658;BME280;5377;43.276;26.930;2022-09-23T11:14:55;99172.06;;;23.83;38.85
10658;BME280;5377;43.276;26.930;2022-09-23T11:20:36;99180.66;;;22.98;41.33
10658;BME280;5377;43.276;26.930;2022-09-23T11:26:24;99185.03;;;22.30;41.56
10658;BME280;5377;43.276;26.930;2022-09-23T11:32:14;99180.97;;;22.02;42.79
10658;BME280;5377;43.276;26.930;2022-09-23T11:35:00;99187.81;;;22.79;41.81
10658;BME280;5377;43.276;26.930;2022-09-23T11:37:32;99182.91;;;22.81;42.08
10658;BME280;5377;43.276;26.930;2022-09-23T11:40:02;99181.09;;;23.11;40.95
10658;BME280;5377;43.276;26.930;2022-09-23T11:42:35;99177.19;;;22.78;41.63
10658;BME280;5377;43.276;26.930;2022-09-23T11:45:07;99179.84;;;23.37;41.10
10658;BME280;5377;43.276;26.930;2022-09-23T11:47:42;99176.66;;;23.88;39.26
10658;BME280;5377;43.276;26.930;2022-09-23T11:50:19;99171.81;;;23.46;38.42
10658;BME280;5377;43.276;26.930;2022-09-23T11:52:52;99162.13;;;22.90;39.86
10658;BME280;5377;43.276;26.930;2022-09-23T11:55:26;99160.50;;;22.84;42.46
10658;BME280;5377;43.276;26.930;2022-09-23T11:58:00;99167.75;;;23.43;41.55
10658;BME280;5377;43.276;26.930;2022-09-23T12:00:33;99161.16;;;24.07;41.65
10658;BME280;5377;43.276;26.930;2022-09-23T12:03:08;99156.19;;;24.57;40.40
10658;BME280;5377;43.276;26.930;2022-09-23T12:05:43;99156.78;;;24.06;40.21
10658;BME280;5377;43.276;26.930;2022-09-23T12:08:16;99141.47;;;23.13;41.89
10658;BME280;5377;43.276;26.930;2022-09-23T12:10:56;99187.78;;;22.89;42.76
10658;BME280;5377;43.276;26.930;2022-09-23T12:13:32;99174.06;;;22.45;43.81
10658;BME280;5377;43.276;26.930;2022-09-23T12:16:20;99168.88;;;22.44;44.35
10658;BME280;5377;43.276;26.930;2022-09-23T12:18:56;99153.41;;;22.24;43.64
10658;BME280;5377;43.276;26.930;2022-09-23T12:21:47;99162.47;;;21.73;45.10
10658;BME280;5377;43.276;26.930;2022-09-23T12:24:26;99154.56;;;21.92;45.29
10658;BME280;5377;43.276;26.930;2022-09-23T12:27:01;99145.19;;;22.93;44.45
10658;BME280;5377;43.276;26.930;2022-09-23T12:29:31;98964.41;;;22.47;42.05
10658;BME280;5377;43.276;26.930;2022-09-23T12:32:01;99147.50;;;23.78;40.30
10658;BME280;5377;43.276;26.930;2022-09-23T12:34:37;99130.31;;;24.02;38.96
10658;BME280;5377;43.276;26.930;2022-09-23T12:37:07;99145.09;;;24.48;38.62
10658;BME280;5377;43.276;26.930;2022-09-23T12:39:36;99121.44;;;24.76;37.39
10658;BME280;5377;43.276;26.930;2022-09-23T12:42:05;99134.22;;;25.37;36.73
10658;BME280;5377;43.276;26.930;2022-09-23T12:44:41;99131.34;;;25.29;36.97
10658;BME280;5377;43.276;26.930;2022-09-23T12:47:37;99134.72;;;24.21;37.40
10658;BME280;5377;43.276;26.930;2022-09-23T12:56:16;99135.78;;;21.70;42.37
10658;BME280;5377;43.276;26.930;2022-09-23T12:59:00;99146.16;;;21.33;43.46
10658;BME280;5377;43.276;26.930;2022-09-23T13:01:34;99144.47;;;21.88;42.52
10658;BME280;5377;43.276;26.930;2022-09-23T13:04:02;99138.03;;;22.97;41.54
10658;BME280;5377;43.276;26.930;2022-09-23T13:06:54;99120.06;;;23.54;40.19
10658;BME280;5377;43.276;26.930;2022-09-23T13:09:25;99090.47;;;24.14;38.20
10658;BME280;5377;43.276;26.930;2022-09-23T13:11:59;99120.09;;;24.74;37.86
10658;BME280;5377;43.276;26.930;2022-09-23T13:14:28;99116.16;;;24.42;36.97
10658;BME280;5377;43.276;26.930;2022-09-23T13:16:58;99121.81;;;24.03;37.98
10658;BME280;5377;43.276;26.930;2022-09-23T13:19:44;99111.91;;;23.20;38.66
10658;BME280;5377;43.276;26.930;2022-09-23T13:22:12;99122.00;;;23.25;38.77
10658;BME280;5377;43.276;26.930;2022-09-23T13:24:43;99112.44;;;23.22;38.48
10658;BME280;5377;43.276;26.930;2022-09-23T13:27:17;99121.00;;;23.11;38.51
10658;BME280;5377;43.276;26.930;2022-09-23T13:29:49;99089.50;;;22.84;38.89
10658;BME280;5377;43.276;26.930;2022-09-23T13:32:20;99123.75;;;22.61;40.93
10658;BME280;5377;43.276;26.930;2022-09-23T13:34:55;99139.16;;;22.37;40.41
10658;BME280;5377;43.276;26.930;2022-09-23T13:37:26;99122.91;;;22.06;41.66
10658;BME280;5377;43.276;26.930;2022-09-23T13:40:06;99118.59;;;21.70;42.97
10658;BME280;5377;43.276;26.930;2022-09-23T13:42:37;99105.06;;;22.34;41.79
10658;BME280;5377;43.276;26.930;2022-09-23T13:45:12;99107.91;;;23.08;40.36
10658;BME280;5377;43.276;26.930;2022-09-23T13:47:42;99102.47;;;23.71;39.33
10658;BME280;5377;43.276;26.930;2022-09-23T13:50:18;99110.41;;;23.96;38.88
10658;BME280;5377;43.276;26.930;2022-09-23T13:52:50;99112.16;;;24.53;38.20
10658;BME280;5377;43.276;26.930;2022-09-23T13:55:30;99112.16;;;24.35;37.80
10658;BME280;5377;43.276;26.930;2022-09-23T13:58:01;99114.59;;;23.54;39.13
10658;BME280;5377;43.276;26.930;2022-09-23T14:00:34;99119.88;;;22.72;39.59
10658;BME280;5377;43.276;26.930;2022-09-23T14:03:02;99118.81;;;22.04;41.79
10658;BME280;5377;43.276;26.930;2022-09-23T14:05:32;99114.44;;;21.98;42.13
10658;BME280;5377;43.276;26.930;2022-09-23T14:08:00;99135.47;;;21.87;42.13
10658;BME280;5377;43.276;26.930;2022-09-23T14:10:28;99140.69;;;21.17;43.08
10658;BME280;5377;43.276;26.930;2022-09-23T14:12:55;99119.97;;;21.11;43.21
10658;BME280;5377;43.276;26.930;2022-09-23T14:15:25;99144.72;;;20.90;43.96
10658;BME280;5377;43.276;26.930;2022-09-23T14:17:53;99151.56;;;21.12;44.19
10658;BME280;5377;43.276;26.930;2022-09-23T14:20:24;99145.84;;;20.99;43.88
10658;BME280;5377;43.276;26.930;2022-09-23T14:23:03;99137.66;;;20.94;43.58
10658;BME280;5377;43.276;26.930;2022-09-23T14:25:30;99141.69;;;20.76;43.76
10658;BME280;5377;43.276;26.930;2022-09-23T14:27:58;99146.84;;;20.72;44.62
10658;BME280;5377;43.276;26.930;2022-09-23T14:30:27;99137.78;;;20.46;44.31
10658;BME280;5377;43.276;26.930;2022-09-23T14:32:55;99131.34;;;20.73;42.17
10658;BME280;5377;43.276;26.930;2022-09-23T14:35:23;99149.09;;;21.16;42.39
10658;BME280;5377;43.276;26.930;2022-09-23T14:37:53;99123.25;;;21.39;41.54
10658;BME280;5377;43.276;26.930;2022-09-23T14:40:49;99126.25;;;21.37;40.71
10658;BME280;5377;43.276;26.930;2022-09-23T14:43:20;99114.22;;;21.74;39.99
10658;BME280;5377;43.276;26.930;2022-09-23T14:45:52;99113.84;;;22.21;38.35
10658;BME280;5377;43.276;26.930;2022-09-23T14:48:22;99116.13;;;22.58;38.08
10658;BME280;5377;43.276;26.930;2022-09-23T14:50:50;99121.00;;;23.11;37.72
10658;BME280;5377;43.276;26.930;2022-09-23T14:53:31;99110.53;;;23.52;37.39
10658;BME280;5377;43.276;26.930;2022-09-23T14:56:09;99106.50;;;24.02;37.28
10658;BME280;5377;43.276;26.930;2022-09-23T14:58:42;99109.19;;;24.50;35.88
10658;BME280;5377;43.276;26.930;2022-09-23T15:01:25;99100.47;;;24.85;35.10
10658;BME280;5377;43.276;26.930;2022-09-23T15:03:53;99082.72;;;24.64;34.94
10658;BME280;5377;43.276;26.930;2022-09-23T15:06:21;99107.91;;;25.04;34.06
10658;BME280;5377;43.276;26.930;2022-09-23T15:08:50;99101.75;;;25.44;33.14
10658;BME280;5377;43.276;26.930;2022-09-23T15:11:17;99107.13;;;25.17;32.87
10658;BME280;5377;43.276;26.930;2022-09-23T15:13:46;99095.06;;;25.18;32.04
10658;BME280;5377;43.276;26.930;2022-09-23T15:16:15;99029.03;;;24.82;31.84
10658;BME280;5377;43.276;26.930;2022-09-23T15:18:44;99102.94;;;25.06;32.11
10658;BME280;5377;43.276;26.930;2022-09-23T15:21:13;99112.91;;;25.34;31.80
10658;BME280;5377;43.276;26.930;2022-09-23T15:23:43;99114.41;;;25.08;31.77
10658;BME280;5377;43.276;26.930;2022-09-23T15:26:13;99113.53;;;25.12;32.10
10658;BME280;5377;43.276;26.930;2022-09-23T15:28:41;99114.00;;;24.96;31.79
10658;BME280;5377;43.276;26.930;2022-09-23T15:31:10;99111.38;;;24.72;32.36
10658;BME280;5377;43.276;26.930;2022-09-23T15:33:37;99115.41;;;24.37;33.04
10658;BME280;5377;43.276;26.930;2022-09-23T15:36:05;99126.72;;;24.30;33.21
10658;BME280;5377;43.276;26.930;2022-09-23T15:38:33;99130.66;;;23.95;33.63
10658;BME280;5377;43.276;26.930;2022-09-23T15:41:00;99127.72;;;23.57;34.36
10658;BME280;5377;43.276;26.930;2022-09-23T15:43:28;99141.88;;;22.96;35.83
10658;BME280;5377;43.276;26.930;2022-09-23T15:45:57;99132.88;;;22.36;37.27
10658;BME280;5377;43.276;26.930;2022-09-23T15:48:28;99145.53;;;21.97;38.38
10658;BME280;5377;43.276;26.930;2022-09-23T15:51:02;99158.69;;;21.54;39.56
10658;BME280;5377;43.276;26.930;2022-09-23T15:53:31;99165.72;;;21.09;39.99
10658;BME280;5377;43.276;26.930;2022-09-23T15:55:58;99165.59;;;20.48;41.05
10658;BME280;5377;43.276;26.930;2022-09-23T15:58:25;99180.00;;;20.07;42.24
10658;BME280;5377;43.276;26.930;2022-09-23T16:00:54;99171.66;;;19.76;43.54
10658;BME280;5377;43.276;26.930;2022-09-23T16:03:21;99178.06;;;19.60;44.23
10658;BME280;5377;43.276;26.930;2022-09-23T16:05:53;99183.47;;;19.28;45.13
10658;BME280;5377;43.276;26.930;2022-09-23T16:08:22;99178.19;;;18.62;46.80
10658;BME280;5377;43.276;26.930;2022-09-23T16:11:19;99190.16;;;18.23;47.79
10658;BME280;5377;43.276;26.930;2022-09-23T16:13:47;99206.88;;;17.98;48.95
10658;BME280;5377;43.276;26.930;2022-09-23T16:16:13;99192.72;;;17.74;49.64
10658;BME280;5377;43.276;26.930;2022-09-23T16:18:41;99203.00;;;17.60;50.77
10658;BME280;5377;43.276;26.930;2022-09-23T16:21:10;99191.69;;;17.46;51.08
10658;BME280;5377;43.276;26.930;2022-09-23T16:23:40;99206.44;;;17.22;51.41
10658;BME280;5377;43.276;26.930;2022-09-23T16:26:14;99205.03;;;16.91;52.27
10658;BME280;5377;43.276;26.930;2022-09-23T16:28:58;99209.50;;;16.69;52.98
10658;BME280;5377;43.276;26.930;2022-09-23T16:35:09;99214.84;;;16.17;56.62
10658;BME280;5377;43.276;26.930;2022-09-23T16:40:58;99211.34;;;16.05;60.30
10658;BME280;5377;43.276;26.930;2022-09-23T16:43:25;99205.34;;;15.91;59.38
10658;BME280;5377;43.276;26.930;2022-09-23T16:45:54;99225.69;;;16.05;59.17
10658;BME280;5377;43.276;26.930;2022-09-23T16:48:22;99225.31;;;15.90;59.96
10658;BME280;5377;43.276;26.930;2022-09-23T16:54:11;99221.44;;;15.74;61.58
10658;BME280;5377;43.276;26.930;2022-09-23T17:00:16;99211.25;;;15.65;60.76
10658;BME280;5377;43.276;26.930;2022-09-23T17:06:26;99247.09;;;15.53;61.00
10658;BME280;5377;43.276;26.930;2022-09-23T17:08:53;99243.56;;;15.41;61.81
10658;BME280;5377;43.276;26.930;2022-09-23T17:11:21;99252.69;;;15.28;63.08
10658;BME280;5377;43.276;26.930;2022-09-23T17:13:54;99108.69;;;14.21;63.16
10658;BME280;5377;43.276;26.930;2022-09-23T17:16:23;99259.19;;;15.21;64.28
10658;BME280;5377;43.276;26.930;2022-09-23T17:18:50;99252.63;;;15.17;64.20
10658;BME280;5377;43.276;26.930;2022-09-23T17:41:50;99263.13;;;13.97;66.95
10658;BME280;5377;43.276;26.930;2022-09-23T17:58:25;99301.97;;;13.83;68.62
10658;BME280;5377;43.276;26.930;2022-09-23T18:04:27;99291.84;;;13.78;69.90
10658;BME280;5377;43.276;26.930;2022-09-23T18:13:57;99294.28;;;13.61;71.76
10658;BME280;5377;43.276;26.930;2022-09-23T18:27:32;99283.03;;;13.39;73.68
10658;BME280;5377;43.276;26.930;2022-09-23T18:33:49;99310.25;;;13.56;74.61
10658;BME280;5377;43.276;26.930;2022-09-23T18:43:05;99296.59;;;13.51;75.89
10658;BME280;5377;43.276;26.930;2022-09-23T18:49:03;99300.09;;;13.58;75.87
10658;BME280;5377;43.276;26.930;2022-09-23T19:02:17;99302.84;;;13.45;79.04
10658;BME280;5377;43.276;26.930;2022-09-23T19:08:24;99283.56;;;13.10;83.50
10658;BME280;5377;43.276;26.930;2022-09-23T19:18:07;99308.38;;;13.25;82.70
10658;BME280;5377;43.276;26.930;2022-09-23T20:31:07;99319.97;;;13.12;89.33
10658;BME280;5377;43.276;26.930;2022-09-23T20:57:38;99310.19;;;12.80;94.72
10658;BME280;5377;43.276;26.930;2022-09-23T21:04:01;99322.22;;;12.71;93.24
10658;BME280;5377;43.276;26.930;2022-09-23T21:10:23;99317.31;;;12.55;96.02
10658;BME280;5377;43.276;26.930;2022-09-23T21:49:04;99310.72;;;12.37;99.97
10658;BME280;5377;43.276;26.930;2022-09-23T21:55:08;99320.88;;;12.29;100.00
10658;BME280;5377;43.276;26.930;2022-09-23T22:11:29;99317.38;;;12.02;100.00
10658;BME280;5377;43.276;26.930;2022-09-23T22:17:39;99319.44;;;11.86;100.00
10658;BME280;5377;43.276;26.930;2022-09-23T22:34:20;99339.53;;;11.16;100.00
10658;BME280;5377;43.276;26.930;2022-09-23T22:40:23;99324.44;;;10.68;100.00
10658;BME280;5377;43.276;26.930;2022-09-23T23:03:39;99341.38;;;10.75;100.00
10658;BME280;5377;43.276;26.930;2022-09-23T23:16:32;99342.19;;;10.75;100.00
10658;BME280;5377;43.276;26.930;2022-09-23T23:22:29;99337.31;;;10.79;100.00
10658;BME280;5377;43.276;26.930;2022-09-23T23:52:47;99270.66;;;10.21;100.00
10658;BME280;5377;43.276;26.930;2022-09-23T23:55:14;99318.81;;;10.49;100.00
